sensor_id;sensor_type;location;lat;lon;timestamp;temperature;humidity
10010;DHT22;5044;48.652;9.250;2022-10-16T00:00:45;15.40;99.90
10010;DHT22;5044;48.652;9.250;2022-10-16T00:03:12;15.30;99.90
10010;DHT22;5044;48.652;9.250;2022-10-16T00:05:41;15.30;99.90
10010;DHT22;5044;48.652;9.250;2022-10-16T00:08:09;15.20;99.90
10010;DHT22;5044;48.652;9.250;2022-10-16T00:10:36;15.10;99.90
10010;DHT22;5044;48.652;9.250;2022-10-16T00:13:05;15.20;99.90
10010;DHT22;5044;48.652;9.250;2022-10-16T00:15:33;15.30;99.90
10010;DHT22;5044;48.652;9.250;2022-10-16T00:18:01;15.20;99.90
10010;DHT22;5044;48.652;9.250;2022-10-16T00:20:28;15.10;99.90
10010;DHT22;5044;48.652;9.250;2022-10-16T00:22:56;15.10;99.90
10010;DHT22;5044;48.652;9.250;2022-10-16T00:25:23;15.10;99.90
10010;DHT22;5044;48.652;9.250;2022-10-16T00:27:50;15.10;99.90
10010;DHT22;5044;48.652;9.250;2022-10-16T00:30:19;15.10;99.90
10010;DHT22;5044;48.652;9.250;2022-10-16T00:32:46;15.10;99.90
10010;DHT22;5044;48.652;9.250;2022-10-16T00:35:13;15.10;99.90
10010;DHT22;5044;48.652;9.250;2022-10-16T00:37:40;15.00;99.90
10010;DHT22;5044;48.652;9.250;2022-10-16T00:40:08;15.00;99.90
10010;DHT22;5044;48.652;9.250;2022-10-16T00:42:35;15.00;99.90
10010;DHT22;5044;48.652;9.250;2022-10-16T00:45:03;14.90;99.90
10010;DHT22;5044;48.652;9.250;2022-10-16T00:47:35;15.00;99.90
10010;DHT22;5044;48.652;9.250;2022-10-16T00:50:08;14.90;99.90
10010;DHT22;5044;48.652;9.250;2022-10-16T00:52:35;14.80;99.90
10010;DHT22;5044;48.652;9.250;2022-10-16T00:55:05;14.90;99.90
10010;DHT22;5044;48.652;9.250;2022-10-16T00:57:33;14.80;99.90
10010;DHT22;5044;48.652;9.250;2022-10-16T01:00:00;14.80;99.90
10010;DHT22;5044;48.652;9.250;2022-10-16T01:02:27;14.80;99.90
10010;DHT22;5044;48.652;9.250;2022-10-16T01:04:56;14.70;99.90
10010;DHT22;5044;48.652;9.250;2022-10-16T01:07:33;14.70;99.90
10010;DHT22;5044;48.652;9.250;2022-10-16T01:10:09;14.70;99.90
10010;DHT22;5044;48.652;9.250;2022-10-16T01:12:45;14.70;99.90
10010;DHT22;5044;48.652;9.250;2022-10-16T01:15:18;14.70;99.90
10010;DHT22;5044;48.652;9.250;2022-10-16T01:17:51;14.70;99.90
10010;DHT22;5044;48.652;9.250;2022-10-16T01:20:26;14.60;99.90
10010;DHT22;5044;48.652;9.250;2022-10-16T01:23:05;14.70;99.90
10010;DHT22;5044;48.652;9.250;2022-10-16T01:25:47;14.60;99.90
10010;DHT22;5044;48.652;9.250;2022-10-16T01:28:22;14.60;99.90
10010;DHT22;5044;48.652;9.250;2022-10-16T01:30:54;14.60;99.90
10010;DHT22;5044;48.652;9.250;2022-10-16T01:33:28;14.60;99.90
10010;DHT22;5044;48.652;9.250;2022-10-16T01:36:00;14.60;99.90
10010;DHT22;5044;48.652;9.250;2022-10-16T01:38:31;14.50;99.90
10010;DHT22;5044;48.652;9.250;2022-10-16T01:41:04;14.50;99.90
10010;DHT22;5044;48.652;9.250;2022-10-16T01:43:37;14.50;99.90
10010;DHT22;5044;48.652;9.250;2022-10-16T01:46:05;14.50;99.90
10010;DHT22;5044;48.652;9.250;2022-10-16T01:48:35;14.50;99.90
10010;DHT22;5044;48.652;9.250;2022-10-16T01:51:06;14.50;99.90
10010;DHT22;5044;48.652;9.250;2022-10-16T01:53:34;14.50;99.90
10010;DHT22;5044;48.652;9.250;2022-10-16T01:56:02;14.50;99.90
10010;DHT22;5044;48.652;9.250;2022-10-16T01:58:36;14.50;99.90
10010;DHT22;5044;48.652;9.250;2022-10-16T02:01:07;14.40;99.90
10010;DHT22;5044;48.652;9.250;2022-10-16T02:03:37;14.40;99.90
10010;DHT22;5044;48.652;9.250;2022-10-16T02:06:07;14.40;99.90
10010;DHT22;5044;48.652;9.250;2022-10-16T02:08:35;14.40;99.90
10010;DHT22;5044;48.652;9.250;2022-10-16T02:11:03;14.40;99.90
10010;DHT22;5044;48.652;9.250;2022-10-16T02:13:35;14.40;99.90
10010;DHT22;5044;48.652;9.250;2022-10-16T02:16:06;14.40;99.90
10010;DHT22;5044;48.652;9.250;2022-10-16T02:18:34;14.40;99.90
10010;DHT22;5044;48.652;9.250;2022-10-16T02:21:07;14.40;99.90
10010;DHT22;5044;48.652;9.250;2022-10-16T02:23:45;14.40;99.90
10010;DHT22;5044;48.652;9.250;2022-10-16T02:26:19;14.40;99.90
10010;DHT22;5044;48.652;9.250;2022-10-16T02:28:55;14.30;99.90
10010;DHT22;5044;48.652;9.250;2022-10-16T02:31:28;14.40;99.90
10010;DHT22;5044;48.652;9.250;2022-10-16T02:33:58;14.40;99.90
10010;DHT22;5044;48.652;9.250;2022-10-16T02:36:26;14.40;99.90
10010;DHT22;5044;48.652;9.250;2022-10-16T02:38:53;14.40;99.90
10010;DHT22;5044;48.652;9.250;2022-10-16T02:41:21;14.40;99.90
10010;DHT22;5044;48.652;9.250;2022-10-16T02:43:48;14.40;99.90
10010;DHT22;5044;48.652;9.250;2022-10-16T02:46:16;14.40;99.90
10010;DHT22;5044;48.652;9.250;2022-10-16T02:48:46;14.40;99.90
10010;DHT22;5044;48.652;9.250;2022-10-16T02:51:13;14.40;99.90
10010;DHT22;5044;48.652;9.250;2022-10-16T02:53:41;14.40;99.90
10010;DHT22;5044;48.652;9.250;2022-10-16T02:56:08;14.30;99.90
10010;DHT22;5044;48.652;9.250;2022-10-16T02:58:35;14.40;99.90
10010;DHT22;5044;48.652;9.250;2022-10-16T03:01:02;14.40;99.90
10010;DHT22;5044;48.652;9.250;2022-10-16T03:03:30;14.40;99.90
10010;DHT22;5044;48.652;9.250;2022-10-16T03:05:59;14.40;99.90
10010;DHT22;5044;48.652;9.250;2022-10-16T03:08:26;14.40;99.90
10010;DHT22;5044;48.652;9.250;2022-10-16T03:10:53;14.40;99.90
10010;DHT22;5044;48.652;9.250;2022-10-16T03:13:20;14.40;99.90
10010;DHT22;5044;48.652;9.250;2022-10-16T03:15:47;14.50;99.90
10010;DHT22;5044;48.652;9.250;2022-10-16T03:18:14;14.40;99.90
10010;DHT22;5044;48.652;9.250;2022-10-16T03:20:42;14.30;99.90
10010;DHT22;5044;48.652;9.250;2022-10-16T03:23:11;14.40;99.90
10010;DHT22;5044;48.652;9.250;2022-10-16T03:25:38;14.40;99.90
10010;DHT22;5044;48.652;9.250;2022-10-16T03:28:05;14.40;99.90
10010;DHT22;5044;48.652;9.250;2022-10-16T03:30:32;14.40;99.90
10010;DHT22;5044;48.652;9.250;2022-10-16T03:33:00;14.30;99.90
10010;DHT22;5044;48.652;9.250;2022-10-16T03:35:29;14.40;99.90
10010;DHT22;5044;48.652;9.250;2022-10-16T03:37:56;14.40;99.90
10010;DHT22;5044;48.652;9.250;2022-10-16T03:40:25;14.50;99.90
10010;DHT22;5044;48.652;9.250;2022-10-16T03:42:52;14.40;99.90
10010;DHT22;5044;48.652;9.250;2022-10-16T03:45:20;14.40;99.90
10010;DHT22;5044;48.652;9.250;2022-10-16T03:47:47;14.40;99.90
10010;DHT22;5044;48.652;9.250;2022-10-16T03:50:14;14.40;99.90
10010;DHT22;5044;48.652;9.250;2022-10-16T03:52:41;14.40;99.90
10010;DHT22;5044;48.652;9.250;2022-10-16T03:55:09;14.40;99.90
10010;DHT22;5044;48.652;9.250;2022-10-16T03:57:38;14.40;99.90
10010;DHT22;5044;48.652;9.250;2022-10-16T04:00:07;14.40;99.90
10010;DHT22;5044;48.652;9.250;2022-10-16T04:02:35;14.40;99.90
10010;DHT22;5044;48.652;9.250;2022-10-16T04:05:03;14.40;99.90
10010;DHT22;5044;48.652;9.250;2022-10-16T04:07:30;14.40;99.90
10010;DHT22;5044;48.652;9.250;2022-10-16T04:09:58;14.40;99.90
10010;DHT22;5044;48.652;9.250;2022-10-16T04:12:26;14.30;99.90
10010;DHT22;5044;48.652;9.250;2022-10-16T04:14:55;14.30;99.90
10010;DHT22;5044;48.652;9.250;2022-10-16T04:17:22;14.30;99.90
10010;DHT22;5044;48.652;9.250;2022-10-16T04:19:49;14.30;99.90
10010;DHT22;5044;48.652;9.250;2022-10-16T04:22:16;14.30;99.90
10010;DHT22;5044;48.652;9.250;2022-10-16T04:24:43;14.20;99.90
10010;DHT22;5044;48.652;9.250;2022-10-16T04:27:11;14.30;99.90
10010;DHT22;5044;48.652;9.250;2022-10-16T04:29:38;14.30;99.90
10010;DHT22;5044;48.652;9.250;2022-10-16T04:32:08;14.30;99.90
10010;DHT22;5044;48.652;9.250;2022-10-16T04:34:36;14.30;99.90
10010;DHT22;5044;48.652;9.250;2022-10-16T04:37:03;14.30;99.90
10010;DHT22;5044;48.652;9.250;2022-10-16T04:39:30;14.30;99.90
10010;DHT22;5044;48.652;9.250;2022-10-16T04:41:58;14.30;99.90
10010;DHT22;5044;48.652;9.250;2022-10-16T04:44:25;14.30;99.90
10010;DHT22;5044;48.652;9.250;2022-10-16T04:46:52;14.30;99.90
10010;DHT22;5044;48.652;9.250;2022-10-16T04:49:20;14.20;99.90
10010;DHT22;5044;48.652;9.250;2022-10-16T04:51:47;14.20;99.90
10010;DHT22;5044;48.652;9.250;2022-10-16T04:54:14;14.20;99.90
10010;DHT22;5044;48.652;9.250;2022-10-16T04:56:41;14.20;99.90
10010;DHT22;5044;48.652;9.250;2022-10-16T04:59:13;14.20;99.90
10010;DHT22;5044;48.652;9.250;2022-10-16T05:01:40;14.20;99.90
10010;DHT22;5044;48.652;9.250;2022-10-16T05:04:09;14.20;99.90
10010;DHT22;5044;48.652;9.250;2022-10-16T05:06:38;14.20;99.90
10010;DHT22;5044;48.652;9.250;2022-10-16T05:09:06;14.20;99.90
10010;DHT22;5044;48.652;9.250;2022-10-16T05:11:34;14.20;99.90
10010;DHT22;5044;48.652;9.250;2022-10-16T05:14:01;14.20;99.90
10010;DHT22;5044;48.652;9.250;2022-10-16T05:16:29;14.20;99.90
10010;DHT22;5044;48.652;9.250;2022-10-16T05:18:58;14.30;99.90
10010;DHT22;5044;48.652;9.250;2022-10-16T05:21:25;14.20;99.90
10010;DHT22;5044;48.652;9.250;2022-10-16T05:23:54;14.20;99.90
10010;DHT22;5044;48.652;9.250;2022-10-16T05:26:21;14.20;99.90
10010;DHT22;5044;48.652;9.250;2022-10-16T05:28:49;14.20;99.90
10010;DHT22;5044;48.652;9.250;2022-10-16T05:31:18;14.10;99.90
10010;DHT22;5044;48.652;9.250;2022-10-16T05:33:46;14.00;99.90
10010;DHT22;5044;48.652;9.250;2022-10-16T05:36:13;14.00;99.90
10010;DHT22;5044;48.652;9.250;2022-10-16T05:38:39;14.00;99.90
10010;DHT22;5044;48.652;9.250;2022-10-16T05:41:10;14.00;99.90
10010;DHT22;5044;48.652;9.250;2022-10-16T05:43:37;14.20;99.90
10010;DHT22;5044;48.652;9.250;2022-10-16T05:46:05;14.00;99.90
10010;DHT22;5044;48.652;9.250;2022-10-16T05:48:32;14.00;99.90
10010;DHT22;5044;48.652;9.250;2022-10-16T05:51:00;13.90;99.90
10010;DHT22;5044;48.652;9.250;2022-10-16T05:53:29;13.90;99.90
10010;DHT22;5044;48.652;9.250;2022-10-16T05:55:57;13.90;99.90
10010;DHT22;5044;48.652;9.250;2022-10-16T05:58:28;13.90;99.90
10010;DHT22;5044;48.652;9.250;2022-10-16T06:00:56;14.00;99.90
10010;DHT22;5044;48.652;9.250;2022-10-16T06:03:23;14.00;99.90
10010;DHT22;5044;48.652;9.250;2022-10-16T06:05:51;14.10;99.90
10010;DHT22;5044;48.652;9.250;2022-10-16T06:08:18;14.00;99.90
10010;DHT22;5044;48.652;9.250;2022-10-16T06:10:46;14.00;99.90
10010;DHT22;5044;48.652;9.250;2022-10-16T06:13:14;14.00;99.90
10010;DHT22;5044;48.652;9.250;2022-10-16T06:15:43;14.00;99.90
10010;DHT22;5044;48.652;9.250;2022-10-16T06:18:10;14.10;99.90
10010;DHT22;5044;48.652;9.250;2022-10-16T06:20:38;14.20;99.90
10010;DHT22;5044;48.652;9.250;2022-10-16T06:23:06;14.00;99.90
10010;DHT22;5044;48.652;9.250;2022-10-16T06:25:33;14.10;99.90
10010;DHT22;5044;48.652;9.250;2022-10-16T06:28:00;14.10;99.90
10010;DHT22;5044;48.652;9.250;2022-10-16T06:30:27;14.20;99.90
10010;DHT22;5044;48.652;9.250;2022-10-16T06:32:57;14.20;99.90
10010;DHT22;5044;48.652;9.250;2022-10-16T06:35:24;14.10;99.90
10010;DHT22;5044;48.652;9.250;2022-10-16T06:37:52;14.30;99.90
10010;DHT22;5044;48.652;9.250;2022-10-16T06:40:19;14.30;99.90
10010;DHT22;5044;48.652;9.250;2022-10-16T06:42:47;14.40;99.90
10010;DHT22;5044;48.652;9.250;2022-10-16T06:45:14;14.50;99.90
10010;DHT22;5044;48.652;9.250;2022-10-16T06:47:41;14.40;99.90
10010;DHT22;5044;48.652;9.250;2022-10-16T06:50:09;14.60;99.90
10010;DHT22;5044;48.652;9.250;2022-10-16T06:52:36;14.70;99.90
10010;DHT22;5044;48.652;9.250;2022-10-16T06:55:04;14.50;99.90
10010;DHT22;5044;48.652;9.250;2022-10-16T06:57:31;14.70;99.90
10010;DHT22;5044;48.652;9.250;2022-10-16T06:59:59;14.70;99.90
10010;DHT22;5044;48.652;9.250;2022-10-16T07:02:26;14.70;99.90
10010;DHT22;5044;48.652;9.250;2022-10-16T07:04:53;14.70;99.90
10010;DHT22;5044;48.652;9.250;2022-10-16T07:07:24;14.70;99.90
10010;DHT22;5044;48.652;9.250;2022-10-16T07:09:52;14.90;99.90
10010;DHT22;5044;48.652;9.250;2022-10-16T07:12:18;14.70;99.90
10010;DHT22;5044;48.652;9.250;2022-10-16T07:14:45;14.90;99.90
10010;DHT22;5044;48.652;9.250;2022-10-16T07:17:12;14.80;99.90
10010;DHT22;5044;48.652;9.250;2022-10-16T07:19:39;15.00;99.90
10010;DHT22;5044;48.652;9.250;2022-10-16T07:22:06;15.00;99.90
10010;DHT22;5044;48.652;9.250;2022-10-16T07:24:35;15.00;99.90
10010;DHT22;5044;48.652;9.250;2022-10-16T07:27:02;15.10;99.90
10010;DHT22;5044;48.652;9.250;2022-10-16T07:29:31;15.10;99.90
10010;DHT22;5044;48.652;9.250;2022-10-16T07:31:58;15.20;99.90
10010;DHT22;5044;48.652;9.250;2022-10-16T07:34:25;15.20;99.90
10010;DHT22;5044;48.652;9.250;2022-10-16T07:36:53;15.30;99.90
10010;DHT22;5044;48.652;9.250;2022-10-16T07:39:20;15.30;99.90
10010;DHT22;5044;48.652;9.250;2022-10-16T07:41:48;15.40;99.90
10010;DHT22;5044;48.652;9.250;2022-10-16T07:44:16;15.40;99.90
10010;DHT22;5044;48.652;9.250;2022-10-16T07:46:43;15.40;99.90
10010;DHT22;5044;48.652;9.250;2022-10-16T07:49:10;15.50;99.90
10010;DHT22;5044;48.652;9.250;2022-10-16T07:51:37;15.50;99.90
10010;DHT22;5044;48.652;9.250;2022-10-16T07:54:05;15.50;99.90
10010;DHT22;5044;48.652;9.250;2022-10-16T07:56:32;15.60;99.90
10010;DHT22;5044;48.652;9.250;2022-10-16T07:59:00;15.50;99.90
10010;DHT22;5044;48.652;9.250;2022-10-16T08:01:27;15.50;99.90
10010;DHT22;5044;48.652;9.250;2022-10-16T08:03:54;15.50;99.90
10010;DHT22;5044;48.652;9.250;2022-10-16T08:06:22;15.60;99.90
10010;DHT22;5044;48.652;9.250;2022-10-16T08:08:50;15.70;99.90
10010;DHT22;5044;48.652;9.250;2022-10-16T08:11:17;15.60;99.90
10010;DHT22;5044;48.652;9.250;2022-10-16T08:13:44;15.60;99.90
10010;DHT22;5044;48.652;9.250;2022-10-16T08:16:14;15.70;99.90
10010;DHT22;5044;48.652;9.250;2022-10-16T08:18:42;15.70;99.90
10010;DHT22;5044;48.652;9.250;2022-10-16T08:21:13;15.80;99.90
10010;DHT22;5044;48.652;9.250;2022-10-16T08:23:41;15.80;99.90
10010;DHT22;5044;48.652;9.250;2022-10-16T08:26:12;15.90;99.90
10010;DHT22;5044;48.652;9.250;2022-10-16T08:28:39;15.90;99.90
10010;DHT22;5044;48.652;9.250;2022-10-16T08:31:08;16.10;99.90
10010;DHT22;5044;48.652;9.250;2022-10-16T08:33:38;16.10;99.90
10010;DHT22;5044;48.652;9.250;2022-10-16T08:36:06;16.30;99.90
10010;DHT22;5044;48.652;9.250;2022-10-16T08:38:33;16.40;99.90
10010;DHT22;5044;48.652;9.250;2022-10-16T08:41:15;16.50;99.90
10010;DHT22;5044;48.652;9.250;2022-10-16T08:44:07;16.70;99.90
10010;DHT22;5044;48.652;9.250;2022-10-16T08:46:42;16.70;99.90
10010;DHT22;5044;48.652;9.250;2022-10-16T08:49:15;16.70;99.90
10010;DHT22;5044;48.652;9.250;2022-10-16T08:51:43;16.80;99.90
10010;DHT22;5044;48.652;9.250;2022-10-16T08:54:22;16.80;99.90
10010;DHT22;5044;48.652;9.250;2022-10-16T08:56:54;16.80;99.90
10010;DHT22;5044;48.652;9.250;2022-10-16T08:59:22;16.80;99.90
10010;DHT22;5044;48.652;9.250;2022-10-16T09:01:50;16.90;99.90
10010;DHT22;5044;48.652;9.250;2022-10-16T09:07:37;16.90;99.90
10010;DHT22;5044;48.652;9.250;2022-10-16T09:10:19;17.00;99.90
10010;DHT22;5044;48.652;9.250;2022-10-16T09:12:55;17.10;99.90
10010;DHT22;5044;48.652;9.250;2022-10-16T09:15:29;17.10;99.90
10010;DHT22;5044;48.652;9.250;2022-10-16T09:18:05;17.20;99.90
10010;DHT22;5044;48.652;9.250;2022-10-16T09:20:51;17.30;99.90
10010;DHT22;5044;48.652;9.250;2022-10-16T09:23:24;17.40;99.90
10010;DHT22;5044;48.652;9.250;2022-10-16T09:25:52;17.40;99.90
10010;DHT22;5044;48.652;9.250;2022-10-16T09:28:20;17.50;99.90
10010;DHT22;5044;48.652;9.250;2022-10-16T09:30:48;17.50;99.90
10010;DHT22;5044;48.652;9.250;2022-10-16T09:33:19;17.70;99.90
10010;DHT22;5044;48.652;9.250;2022-10-16T09:35:54;17.80;99.90
10010;DHT22;5044;48.652;9.250;2022-10-16T09:38:24;17.90;99.90
10010;DHT22;5044;48.652;9.250;2022-10-16T09:40:52;18.00;99.90
10010;DHT22;5044;48.652;9.250;2022-10-16T09:43:22;18.30;99.90
10010;DHT22;5044;48.652;9.250;2022-10-16T09:45:55;18.50;99.90
10010;DHT22;5044;48.652;9.250;2022-10-16T09:48:22;18.70;99.90
10010;DHT22;5044;48.652;9.250;2022-10-16T09:51:00;18.50;99.90
10010;DHT22;5044;48.652;9.250;2022-10-16T09:53:39;18.70;99.90
10010;DHT22;5044;48.652;9.250;2022-10-16T09:56:07;18.50;99.90
10010;DHT22;5044;48.652;9.250;2022-10-16T11:03:17;22.00;99.90
10010;DHT22;5044;48.652;9.250;2022-10-16T11:05:50;22.00;99.90
10010;DHT22;5044;48.652;9.250;2022-10-16T11:08:21;22.10;99.90
10010;DHT22;5044;48.652;9.250;2022-10-16T11:10:54;22.10;99.90
10010;DHT22;5044;48.652;9.250;2022-10-16T11:13:30;22.20;99.00
10010;DHT22;5044;48.652;9.250;2022-10-16T11:16:02;22.20;99.90
10010;DHT22;5044;48.652;9.250;2022-10-16T11:18:43;22.40;99.90
10010;DHT22;5044;48.652;9.250;2022-10-16T11:21:17;22.40;99.90
10010;DHT22;5044;48.652;9.250;2022-10-16T11:23:53;22.60;99.90
10010;DHT22;5044;48.652;9.250;2022-10-16T11:26:30;22.60;99.90
10010;DHT22;5044;48.652;9.250;2022-10-16T11:29:12;22.80;99.90
10010;DHT22;5044;48.652;9.250;2022-10-16T11:31:47;22.80;99.20
10010;DHT22;5044;48.652;9.250;2022-10-16T11:34:26;22.60;99.90
10010;DHT22;5044;48.652;9.250;2022-10-16T11:37:17;23.00;99.90
10010;DHT22;5044;48.652;9.250;2022-10-16T11:40:05;23.00;97.50
10010;DHT22;5044;48.652;9.250;2022-10-16T11:43:10;22.90;99.90
10010;DHT22;5044;48.652;9.250;2022-10-16T11:46:02;23.30;99.90
10010;DHT22;5044;48.652;9.250;2022-10-16T11:48:36;23.40;99.30
10010;DHT22;5044;48.652;9.250;2022-10-16T11:51:31;23.60;98.50
10010;DHT22;5044;48.652;9.250;2022-10-16T11:54:05;23.70;96.90
10010;DHT22;5044;48.652;9.250;2022-10-16T11:56:50;23.70;92.80
10010;DHT22;5044;48.652;9.250;2022-10-16T12:00:22;23.80;96.90
10010;DHT22;5044;48.652;9.250;2022-10-16T12:03:28;23.90;94.20
10010;DHT22;5044;48.652;9.250;2022-10-16T12:09:50;23.80;84.70
10010;DHT22;5044;48.652;9.250;2022-10-16T12:12:40;23.70;91.60
10010;DHT22;5044;48.652;9.250;2022-10-16T12:16:20;24.10;90.40
10010;DHT22;5044;48.652;9.250;2022-10-16T12:22:18;24.10;85.40
10010;DHT22;5044;48.652;9.250;2022-10-16T12:25:17;23.80;84.30
10010;DHT22;5044;48.652;9.250;2022-10-16T12:27:59;23.90;86.10
10010;DHT22;5044;48.652;9.250;2022-10-16T12:44:26;23.40;81.50
10010;DHT22;5044;48.652;9.250;2022-10-16T12:47:17;23.60;86.60
10010;DHT22;5044;48.652;9.250;2022-10-16T12:50:03;23.80;93.50
10010;DHT22;5044;48.652;9.250;2022-10-16T12:53:29;23.80;91.00
10010;DHT22;5044;48.652;9.250;2022-10-16T12:56:23;23.70;88.30
10010;DHT22;5044;48.652;9.250;2022-10-16T12:59:43;23.70;80.60
10010;DHT22;5044;48.652;9.250;2022-10-16T13:02:54;23.80;91.10
10010;DHT22;5044;48.652;9.250;2022-10-16T13:06:00;23.90;93.40
10010;DHT22;5044;48.652;9.250;2022-10-16T13:09:13;23.90;94.50
10010;DHT22;5044;48.652;9.250;2022-10-16T13:12:22;24.10;91.40
10010;DHT22;5044;48.652;9.250;2022-10-16T13:27:00;24.70;87.40
10010;DHT22;5044;48.652;9.250;2022-10-16T13:30:12;24.90;91.40
10010;DHT22;5044;48.652;9.250;2022-10-16T13:36:28;24.90;83.80
10010;DHT22;5044;48.652;9.250;2022-10-16T13:39:06;24.60;82.90
10010;DHT22;5044;48.652;9.250;2022-10-16T13:41:38;24.80;87.90
10010;DHT22;5044;48.652;9.250;2022-10-16T13:44:11;25.00;92.80
10010;DHT22;5044;48.652;9.250;2022-10-16T13:46:40;25.00;81.10
10010;DHT22;5044;48.652;9.250;2022-10-16T13:49:12;24.90;91.50
10010;DHT22;5044;48.652;9.250;2022-10-16T13:51:40;24.80;92.60
10010;DHT22;5044;48.652;9.250;2022-10-16T13:54:09;24.60;94.90
10010;DHT22;5044;48.652;9.250;2022-10-16T13:56:39;24.60;96.00
10010;DHT22;5044;48.652;9.250;2022-10-16T13:59:23;24.50;94.20
10010;DHT22;5044;48.652;9.250;2022-10-16T14:01:52;24.50;94.90
10010;DHT22;5044;48.652;9.250;2022-10-16T14:04:21;24.40;93.40
10010;DHT22;5044;48.652;9.250;2022-10-16T14:06:50;24.30;94.10
10010;DHT22;5044;48.652;9.250;2022-10-16T14:09:23;24.30;93.70
10010;DHT22;5044;48.652;9.250;2022-10-16T14:11:56;24.40;98.20
10010;DHT22;5044;48.652;9.250;2022-10-16T14:14:34;24.30;91.90
10010;DHT22;5044;48.652;9.250;2022-10-16T14:17:33;24.20;95.60
10010;DHT22;5044;48.652;9.250;2022-10-16T14:23:02;24.20;97.50
10010;DHT22;5044;48.652;9.250;2022-10-16T14:25:33;24.20;95.20
10010;DHT22;5044;48.652;9.250;2022-10-16T14:28:04;24.10;97.50
10010;DHT22;5044;48.652;9.250;2022-10-16T14:30:50;24.00;96.80
10010;DHT22;5044;48.652;9.250;2022-10-16T14:33:35;23.70;95.20
10010;DHT22;5044;48.652;9.250;2022-10-16T14:36:10;24.00;96.90
10010;DHT22;5044;48.652;9.250;2022-10-16T14:38:58;23.90;96.10
10010;DHT22;5044;48.652;9.250;2022-10-16T14:42:04;23.80;95.70
10010;DHT22;5044;48.652;9.250;2022-10-16T14:44:33;23.80;95.00
10010;DHT22;5044;48.652;9.250;2022-10-16T14:47:17;23.70;93.80
10010;DHT22;5044;48.652;9.250;2022-10-16T14:49:55;23.60;96.10
10010;DHT22;5044;48.652;9.250;2022-10-16T14:52:29;23.60;94.80
10010;DHT22;5044;48.652;9.250;2022-10-16T14:55:19;23.50;93.30
10010;DHT22;5044;48.652;9.250;2022-10-16T14:59:27;23.50;94.20
10010;DHT22;5044;48.652;9.250;2022-10-16T15:02:26;23.50;96.40
10010;DHT22;5044;48.652;9.250;2022-10-16T15:05:27;23.50;97.10
10010;DHT22;5044;48.652;9.250;2022-10-16T15:11:49;23.40;96.70
10010;DHT22;5044;48.652;9.250;2022-10-16T15:14:32;23.30;96.20
10010;DHT22;5044;48.652;9.250;2022-10-16T15:17:02;23.10;98.10
10010;DHT22;5044;48.652;9.250;2022-10-16T15:19:38;23.20;97.80
10010;DHT22;5044;48.652;9.250;2022-10-16T15:22:26;23.20;99.90
10010;DHT22;5044;48.652;9.250;2022-10-16T15:25:27;23.10;99.90
10010;DHT22;5044;48.652;9.250;2022-10-16T15:28:14;23.00;97.60
10010;DHT22;5044;48.652;9.250;2022-10-16T15:30:58;23.00;97.70
10010;DHT22;5044;48.652;9.250;2022-10-16T15:33:32;22.80;97.40
10010;DHT22;5044;48.652;9.250;2022-10-16T15:36:42;22.90;96.30
10010;DHT22;5044;48.652;9.250;2022-10-16T15:39:26;22.70;99.00
10010;DHT22;5044;48.652;9.250;2022-10-16T15:42:13;22.70;99.90
10010;DHT22;5044;48.652;9.250;2022-10-16T15:45:19;22.70;99.90
10010;DHT22;5044;48.652;9.250;2022-10-16T15:47:50;22.60;99.90
10010;DHT22;5044;48.652;9.250;2022-10-16T15:50:30;22.50;99.90
10010;DHT22;5044;48.652;9.250;2022-10-16T15:53:32;22.50;99.90
10010;DHT22;5044;48.652;9.250;2022-10-16T15:56:06;22.40;99.90
10010;DHT22;5044;48.652;9.250;2022-10-16T15:58:39;22.30;99.90
10010;DHT22;5044;48.652;9.250;2022-10-16T16:01:23;22.20;99.90
10010;DHT22;5044;48.652;9.250;2022-10-16T16:03:55;22.10;99.90
10010;DHT22;5044;48.652;9.250;2022-10-16T16:06:28;22.00;99.90
10010;DHT22;5044;48.652;9.250;2022-10-16T16:09:00;22.00;99.90
10010;DHT22;5044;48.652;9.250;2022-10-16T16:11:34;21.90;99.90
10010;DHT22;5044;48.652;9.250;2022-10-16T16:14:06;21.80;99.90
10010;DHT22;5044;48.652;9.250;2022-10-16T16:16:39;21.70;99.90
10010;DHT22;5044;48.652;9.250;2022-10-16T16:19:17;21.70;99.90
10010;DHT22;5044;48.652;9.250;2022-10-16T16:21:47;21.60;99.90
10010;DHT22;5044;48.652;9.250;2022-10-16T16:24:19;21.50;99.90
10010;DHT22;5044;48.652;9.250;2022-10-16T16:26:47;21.50;99.90
10010;DHT22;5044;48.652;9.250;2022-10-16T16:29:15;21.40;99.90
10010;DHT22;5044;48.652;9.250;2022-10-16T16:31:43;21.20;99.90
10010;DHT22;5044;48.652;9.250;2022-10-16T16:34:13;21.20;99.90
10010;DHT22;5044;48.652;9.250;2022-10-16T16:36:40;21.00;99.90
10010;DHT22;5044;48.652;9.250;2022-10-16T16:39:07;21.00;99.90
10010;DHT22;5044;48.652;9.250;2022-10-16T16:41:37;20.90;99.90
10010;DHT22;5044;48.652;9.250;2022-10-16T16:44:05;20.80;99.90
10010;DHT22;5044;48.652;9.250;2022-10-16T16:46:34;20.70;99.90
10010;DHT22;5044;48.652;9.250;2022-10-16T16:49:03;20.60;99.90
10010;DHT22;5044;48.652;9.250;2022-10-16T16:51:40;20.50;99.90
10010;DHT22;5044;48.652;9.250;2022-10-16T16:57:36;20.30;99.90
10010;DHT22;5044;48.652;9.250;2022-10-16T17:00:10;20.00;99.90
10010;DHT22;5044;48.652;9.250;2022-10-16T17:03:02;19.90;99.90
10010;DHT22;5044;48.652;9.250;2022-10-16T17:05:37;19.90;99.90
10010;DHT22;5044;48.652;9.250;2022-10-16T17:08:09;19.80;99.90
10010;DHT22;5044;48.652;9.250;2022-10-16T17:10:43;19.70;99.90
10010;DHT22;5044;48.652;9.250;2022-10-16T17:13:26;19.80;99.90
10010;DHT22;5044;48.652;9.250;2022-10-16T17:16:12;19.80;99.90
10010;DHT22;5044;48.652;9.250;2022-10-16T17:29:49;19.60;99.90
10010;DHT22;5044;48.652;9.250;2022-10-16T17:32:18;19.60;99.90
10010;DHT22;5044;48.652;9.250;2022-10-16T17:34:50;19.50;99.90
10010;DHT22;5044;48.652;9.250;2022-10-16T17:37:20;19.40;99.90
10010;DHT22;5044;48.652;9.250;2022-10-16T17:39:56;19.40;99.90
10010;DHT22;5044;48.652;9.250;2022-10-16T17:42:26;19.30;99.90
10010;DHT22;5044;48.652;9.250;2022-10-16T17:44:56;19.30;99.90
10010;DHT22;5044;48.652;9.250;2022-10-16T17:47:25;19.30;99.90
10010;DHT22;5044;48.652;9.250;2022-10-16T17:49:54;19.10;99.90
10010;DHT22;5044;48.652;9.250;2022-10-16T17:52:22;19.10;99.90
10010;DHT22;5044;48.652;9.250;2022-10-16T17:54:50;19.10;99.90
10010;DHT22;5044;48.652;9.250;2022-10-16T17:57:21;19.10;99.90
10010;DHT22;5044;48.652;9.250;2022-10-16T17:59:53;19.00;99.90
10010;DHT22;5044;48.652;9.250;2022-10-16T18:02:23;18.90;99.90
10010;DHT22;5044;48.652;9.250;2022-10-16T18:04:52;18.90;99.90
10010;DHT22;5044;48.652;9.250;2022-10-16T18:07:30;18.80;99.90
10010;DHT22;5044;48.652;9.250;2022-10-16T18:09:59;18.80;99.90
10010;DHT22;5044;48.652;9.250;2022-10-16T18:12:33;18.70;99.90
10010;DHT22;5044;48.652;9.250;2022-10-16T18:15:01;18.60;99.90
10010;DHT22;5044;48.652;9.250;2022-10-16T18:17:34;18.70;99.90
10010;DHT22;5044;48.652;9.250;2022-10-16T18:20:04;18.60;99.90
10010;DHT22;5044;48.652;9.250;2022-10-16T18:22:33;18.60;99.90
10010;DHT22;5044;48.652;9.250;2022-10-16T18:25:06;18.50;99.90
10010;DHT22;5044;48.652;9.250;2022-10-16T18:27:45;18.50;99.90
10010;DHT22;5044;48.652;9.250;2022-10-16T18:30:13;18.40;99.90